sensor_id;sensor_type;location;lat;lon;timestamp;P1;durP1;ratioP1;P2;durP2;ratioP2
29414;SDS011;20303;48.302;11.914;2023-02-22T00:09:19;6.13;;;4.22;;
29414;SDS011;20303;48.302;11.914;2023-02-22T00:19:21;7.93;;;4.50;;
29414;SDS011;20303;48.302;11.914;2023-02-22T00:29:22;5.85;;;4.10;;
29414;SDS011;20303;48.302;11.914;2023-02-22T00:39:24;5.57;;;4.10;;
29414;SDS011;20303;48.302;11.914;2023-02-22T00:49:25;5.85;;;3.97;;
29414;SDS011;20303;48.302;11.914;2023-02-22T00:59:26;6.43;;;3.90;;
29414;SDS011;20303;48.302;11.914;2023-02-22T01:09:27;5.68;;;3.90;;
29414;SDS011;20303;48.302;11.914;2023-02-22T01:19:28;5.80;;;3.72;;
29414;SDS011;20303;48.302;11.914;2023-02-22T01:29:31;5.55;;;3.65;;
29414;SDS011;20303;48.302;11.914;2023-02-22T01:39:32;5.57;;;3.65;;
29414;SDS011;20303;48.302;11.914;2023-02-22T01:49:38;5.07;;;3.40;;
29414;SDS011;20303;48.302;11.914;2023-02-22T01:59:43;5.57;;;3.75;;
29414;SDS011;20303;48.302;11.914;2023-02-22T02:10:02;5.03;;;3.47;;
29414;SDS011;20303;48.302;11.914;2023-02-22T02:20:16;4.80;;;3.30;;
29414;SDS011;20303;48.302;11.914;2023-02-22T02:30:27;8.98;;;3.50;;
29414;SDS011;20303;48.302;11.914;2023-02-22T02:41:08;4.35;;;3.00;;
29414;SDS011;20303;48.302;11.914;2023-02-22T02:51:23;4.88;;;3.33;;
29414;SDS011;20303;48.302;11.914;2023-02-22T03:01:35;4.88;;;3.00;;
29414;SDS011;20303;48.302;11.914;2023-02-22T03:11:50;4.75;;;3.00;;
29414;SDS011;20303;48.302;11.914;2023-02-22T03:32:10;4.63;;;3.00;;
29414;SDS011;20303;48.302;11.914;2023-02-22T03:42:16;4.25;;;2.80;;
29414;SDS011;20303;48.302;11.914;2023-02-22T03:52:21;3.78;;;2.53;;
29414;SDS011;20303;48.302;11.914;2023-02-22T04:02:23;4.10;;;2.70;;
29414;SDS011;20303;48.302;11.914;2023-02-22T04:12:24;4.43;;;2.60;;
29414;SDS011;20303;48.302;11.914;2023-02-22T04:22:25;3.55;;;2.63;;
29414;SDS011;20303;48.302;11.914;2023-02-22T04:32:26;3.50;;;2.58;;
29414;SDS011;20303;48.302;11.914;2023-02-22T04:42:27;3.33;;;2.50;;
29414;SDS011;20303;48.302;11.914;2023-02-22T04:52:28;3.92;;;2.70;;
29414;SDS011;20303;48.302;11.914;2023-02-22T05:02:29;3.80;;;2.40;;
29414;SDS011;20303;48.302;11.914;2023-02-22T05:12:30;3.97;;;2.70;;
29414;SDS011;20303;48.302;11.914;2023-02-22T05:22:31;4.00;;;2.50;;
29414;SDS011;20303;48.302;11.914;2023-02-22T05:32:33;4.53;;;2.45;;
29414;SDS011;20303;48.302;11.914;2023-02-22T05:42:34;4.20;;;2.60;;
29414;SDS011;20303;48.302;11.914;2023-02-22T05:52:36;3.95;;;2.13;;
29414;SDS011;20303;48.302;11.914;2023-02-22T06:02:37;4.97;;;2.50;;
29414;SDS011;20303;48.302;11.914;2023-02-22T06:12:38;10.40;;;3.20;;
29414;SDS011;20303;48.302;11.914;2023-02-22T06:22:40;17.65;;;4.30;;
29414;SDS011;20303;48.302;11.914;2023-02-22T06:32:41;15.20;;;4.60;;
29414;SDS011;20303;48.302;11.914;2023-02-22T06:42:42;18.95;;;4.88;;
29414;SDS011;20303;48.302;11.914;2023-02-22T06:52:44;18.35;;;5.00;;
29414;SDS011;20303;48.302;11.914;2023-02-22T07:02:46;16.13;;;4.85;;
29414;SDS011;20303;48.302;11.914;2023-02-22T07:12:47;15.65;;;4.75;;
29414;SDS011;20303;48.302;11.914;2023-02-22T07:22:49;14.70;;;4.45;;
29414;SDS011;20303;48.302;11.914;2023-02-22T07:32:51;11.10;;;4.20;;
29414;SDS011;20303;48.302;11.914;2023-02-22T07:53:00;10.77;;;4.30;;
29414;SDS011;20303;48.302;11.914;2023-02-22T08:03:03;13.05;;;3.90;;
29414;SDS011;20303;48.302;11.914;2023-02-22T08:13:05;8.55;;;3.83;;
29414;SDS011;20303;48.302;11.914;2023-02-22T08:23:07;7.85;;;3.78;;
29414;SDS011;20303;48.302;11.914;2023-02-22T08:33:09;7.97;;;3.35;;
29414;SDS011;20303;48.302;11.914;2023-02-22T08:43:13;8.45;;;3.65;;
29414;SDS011;20303;48.302;11.914;2023-02-22T08:53:14;7.50;;;3.53;;
29414;SDS011;20303;48.302;11.914;2023-02-22T09:03:16;6.50;;;3.55;;
29414;SDS011;20303;48.302;11.914;2023-02-22T09:13:17;6.28;;;3.50;;
29414;SDS011;20303;48.302;11.914;2023-02-22T09:23:18;7.85;;;3.22;;
29414;SDS011;20303;48.302;11.914;2023-02-22T09:33:20;6.40;;;3.15;;
29414;SDS011;20303;48.302;11.914;2023-02-22T09:53:42;7.25;;;3.40;;
29414;SDS011;20303;48.302;11.914;2023-02-22T10:04:04;5.55;;;3.15;;
29414;SDS011;20303;48.302;11.914;2023-02-22T10:14:33;6.28;;;3.17;;
29414;SDS011;20303;48.302;11.914;2023-02-22T10:24:58;5.70;;;3.08;;
29414;SDS011;20303;48.302;11.914;2023-02-22T10:35:05;7.20;;;3.42;;
29414;SDS011;20303;48.302;11.914;2023-02-22T10:55:21;8.35;;;3.10;;
29414;SDS011;20303;48.302;11.914;2023-02-22T11:15:30;6.50;;;3.05;;
29414;SDS011;20303;48.302;11.914;2023-02-22T11:25:32;5.82;;;2.95;;
29414;SDS011;20303;48.302;11.914;2023-02-22T11:45:38;5.20;;;3.20;;
29414;SDS011;20303;48.302;11.914;2023-02-22T11:55:59;8.35;;;2.97;;
29414;SDS011;20303;48.302;11.914;2023-02-22T12:06:38;5.85;;;3.20;;
29414;SDS011;20303;48.302;11.914;2023-02-22T12:27:19;4.47;;;2.90;;
29414;SDS011;20303;48.302;11.914;2023-02-22T12:38:02;4.70;;;2.92;;
29414;SDS011;20303;48.302;11.914;2023-02-22T12:58:47;5.88;;;3.22;;
29414;SDS011;20303;48.302;11.914;2023-02-22T13:09:02;5.78;;;3.17;;
29414;SDS011;20303;48.302;11.914;2023-02-22T13:29:55;6.45;;;3.30;;
29414;SDS011;20303;48.302;11.914;2023-02-22T14:10:46;5.13;;;3.28;;
29414;SDS011;20303;48.302;11.914;2023-02-22T14:21:05;10.85;;;3.97;;
29414;SDS011;20303;48.302;11.914;2023-02-22T14:31:18;4.68;;;3.20;;
29414;SDS011;20303;48.302;11.914;2023-02-22T14:41:28;5.43;;;3.30;;
29414;SDS011;20303;48.302;11.914;2023-02-22T14:51:39;6.90;;;4.28;;
29414;SDS011;20303;48.302;11.914;2023-02-22T15:01:41;6.40;;;3.30;;
29414;SDS011;20303;48.302;11.914;2023-02-22T15:11:46;5.05;;;2.90;;
29414;SDS011;20303;48.302;11.914;2023-02-22T15:21:48;5.05;;;2.85;;
29414;SDS011;20303;48.302;11.914;2023-02-22T15:31:51;5.07;;;2.65;;
29414;SDS011;20303;48.302;11.914;2023-02-22T15:42:02;5.97;;;2.50;;
29414;SDS011;20303;48.302;11.914;2023-02-22T15:52:06;8.67;;;3.20;;
29414;SDS011;20303;48.302;11.914;2023-02-22T16:02:31;12.80;;;4.22;;
29414;SDS011;20303;48.302;11.914;2023-02-22T16:12:41;9.47;;;4.30;;
29414;SDS011;20303;48.302;11.914;2023-02-22T16:22:42;9.30;;;4.50;;
29414;SDS011;20303;48.302;11.914;2023-02-22T16:32:50;11.57;;;4.72;;
29414;SDS011;20303;48.302;11.914;2023-02-22T16:42:53;7.32;;;4.45;;
29414;SDS011;20303;48.302;11.914;2023-02-22T16:52:57;8.93;;;4.25;;
29414;SDS011;20303;48.302;11.914;2023-02-22T17:03:00;8.60;;;4.10;;
29414;SDS011;20303;48.302;11.914;2023-02-22T17:13:04;7.20;;;3.70;;
29414;SDS011;20303;48.302;11.914;2023-02-22T17:23:07;7.78;;;3.78;;
29414;SDS011;20303;48.302;11.914;2023-02-22T17:33:12;7.53;;;3.67;;
29414;SDS011;20303;48.302;11.914;2023-02-22T17:43:15;7.28;;;3.88;;
29414;SDS011;20303;48.302;11.914;2023-02-22T17:53:18;9.15;;;3.50;;
29414;SDS011;20303;48.302;11.914;2023-02-22T18:03:24;7.03;;;3.50;;
29414;SDS011;20303;48.302;11.914;2023-02-22T18:13:26;7.28;;;3.35;;
29414;SDS011;20303;48.302;11.914;2023-02-22T18:23:28;7.43;;;3.40;;
29414;SDS011;20303;48.302;11.914;2023-02-22T18:33:30;5.93;;;3.20;;
29414;SDS011;20303;48.302;11.914;2023-02-22T18:43:31;5.50;;;3.00;;
29414;SDS011;20303;48.302;11.914;2023-02-22T18:53:36;4.80;;;3.10;;
29414;SDS011;20303;48.302;11.914;2023-02-22T19:03:37;4.95;;;3.17;;
29414;SDS011;20303;48.302;11.914;2023-02-22T19:13:38;6.07;;;3.10;;
29414;SDS011;20303;48.302;11.914;2023-02-22T19:23:40;5.70;;;3.17;;
29414;SDS011;20303;48.302;11.914;2023-02-22T19:33:51;3.85;;;2.78;;
29414;SDS011;20303;48.302;11.914;2023-02-22T19:43:52;5.47;;;3.03;;
29414;SDS011;20303;48.302;11.914;2023-02-22T19:53:55;4.45;;;2.90;;
29414;SDS011;20303;48.302;11.914;2023-02-22T20:03:59;4.28;;;3.03;;
29414;SDS011;20303;48.302;11.914;2023-02-22T20:14:02;5.10;;;2.72;;
29414;SDS011;20303;48.302;11.914;2023-02-22T20:24:06;5.03;;;3.03;;
29414;SDS011;20303;48.302;11.914;2023-02-22T20:34:08;5.50;;;3.17;;
29414;SDS011;20303;48.302;11.914;2023-02-22T20:44:19;5.55;;;3.42;;
29414;SDS011;20303;48.302;11.914;2023-02-22T20:54:20;4.57;;;3.00;;
29414;SDS011;20303;48.302;11.914;2023-02-22T21:04:21;4.15;;;2.90;;
29414;SDS011;20303;48.302;11.914;2023-02-22T21:14:22;5.22;;;3.10;;
29414;SDS011;20303;48.302;11.914;2023-02-22T21:24:25;6.75;;;3.22;;
29414;SDS011;20303;48.302;11.914;2023-02-22T21:34:26;4.85;;;3.22;;
29414;SDS011;20303;48.302;11.914;2023-02-22T21:44:28;4.85;;;3.25;;
29414;SDS011;20303;48.302;11.914;2023-02-22T21:54:29;4.63;;;3.35;;
29414;SDS011;20303;48.302;11.914;2023-02-22T22:04:31;4.55;;;3.13;;
29414;SDS011;20303;48.302;11.914;2023-02-22T22:14:33;4.28;;;3.10;;
29414;SDS011;20303;48.302;11.914;2023-02-22T22:24:35;5.40;;;3.13;;
29414;SDS011;20303;48.302;11.914;2023-02-22T22:34:36;8.13;;;3.75;;
29414;SDS011;20303;48.302;11.914;2023-02-22T22:44:37;5.28;;;3.40;;
29414;SDS011;20303;48.302;11.914;2023-02-22T22:54:41;5.60;;;3.40;;
29414;SDS011;20303;48.302;11.914;2023-02-22T23:04:43;6.22;;;3.20;;
29414;SDS011;20303;48.302;11.914;2023-02-22T23:14:44;7.82;;;3.53;;
29414;SDS011;20303;48.302;11.914;2023-02-22T23:24:45;5.60;;;3.58;;
29414;SDS011;20303;48.302;11.914;2023-02-22T23:34:46;4.82;;;3.20;;
29414;SDS011;20303;48.302;11.914;2023-02-22T23:44:50;5.63;;;3.30;;
29414;SDS011;20303;48.302;11.914;2023-02-22T23:54:52;5.60;;;3.30;;
